Charleston, SC (29410)

11:01 PM EST on February 13, 2016 (GMT -0500)
Amber Glen @ Tanner Plantation | | Change Station
CLOSE
Current Station
Personal Weather Station
Location: Hanahan, SC
Elevation: 30 ft
Nearby Weather Stations
Active Advisory: Flood Warning

Elev 30 ft 32.94 °N, 80.00 °W | Updated 1 minute ago

Clear
Clear
35.4 °F
Feels Like 35 °F
N
0.0
Wind Variable Wind from North
Gusts 3.8 mph

Today
High -- | Low -- °F
--% Chance of Precip.
Yesterday
High -- | Low -- °F
Precip. -- in
Pressure 30.38 in
Visibility 10.0 miles
Clouds Clear
Windchill 35 °F
Dew Point 18 °F
Humidity 49%
Rainfall 0.00 in
Snow Depth Not available.
7:05 AM 6:03 PM
Waxing Crescent, 37% visible
METAR KCHS 140356Z 06009KT 10SM CLR 02/M08 A3038 RMK AO2 SLP285 T00221078
Pressure 30.38 in
Visibility 10.0 miles
Clouds Clear
Windchill 35 °F
Dew Point 18 °F
Humidity 49%
Rainfall 0.00 in
Snow Depth Not available.
7:05 AM 6:03 PM
Waxing Crescent, 37% visible
METAR KCHS 140356Z 06009KT 10SM CLR 02/M08 A3038 RMK AO2 SLP285 T00221078

10-Day Weather Forecast

Almanac

Astronomy

Feb. 13, 2016 Rise Set
Actual Time
Civil Twilight
Nautical Twilight
Astronomical Twilight
Moon
Length of Visible Light
Length of Day
Tomorrow will be .
, % of the Moon is Illuminated

Today's Extremes

State Highs State Lows

Community

WunderPhotos

Upload Photos

1,892,743 photos uploaded!

WunderBlog® & News

Nearby

Air Quality

  Air Quality AQ Index Pollutant
Not available.

Snow Depth

Station Depth Elevation

Earthquake Activity

City Distance Mag. Time & Date
Minimum magnitude displayed is 2.5.

Coastal Water Temperatures

Place Temperature

Stations

Nearby Weather Stations

Station Location Temp. Windchill Dew Point Humidity Wind Precip. Elev Updated Type
                   

Watches & Warnings

Flood Warning
Issued: 10:05 PM EST Feb. 13, 2016 – National Weather Service

The Flood Warning continues for
the Santee river near Jamestown.
* At 9 PM Saturday the stage was 13.4 feet.
* Flood stage is 10.0 feet.
* Minor flooding is occurring.
* Forecast, the river will remain nearly steady or slowly fall.
* At 12.0 feet, several dirt logging roads are impassable.


Lat... Lon 3347 8002 3354 7998 3325 7937 3321 7938
          3320 7951 3329 7976